createdAt,value
2018-03-06T00:00:21.839Z,12.60
2018-03-06T00:02:50.291Z,5.77
2018-03-06T00:05:18.560Z,11.20
2018-03-06T00:07:49.908Z,5.33
2018-03-06T00:10:18.544Z,10.83
2018-03-06T00:12:46.818Z,12.50
2018-03-06T00:15:15.110Z,3.17
2018-03-06T00:17:43.439Z,9.03
2018-03-06T00:20:11.939Z,8.70
2018-03-06T00:22:40.214Z,10.93
2018-03-06T00:25:08.729Z,13.87
2018-03-06T00:27:37.001Z,13.33
2018-03-06T00:30:05.285Z,13.20
2018-03-06T00:32:34.475Z,11.57
2018-03-06T00:35:02.743Z,11.00
2018-03-06T00:37:31.033Z,14.37
2018-03-06T00:40:00.100Z,11.93
2018-03-06T00:42:28.380Z,12.20
2018-03-06T00:45:00.235Z,12.37
2018-03-06T00:47:28.575Z,13.37
2018-03-06T00:49:57.644Z,11.10
2018-03-06T00:52:26.685Z,11.60
2018-03-06T00:54:54.996Z,11.33
2018-03-06T00:57:23.306Z,13.70
2018-03-06T00:59:52.350Z,13.30
2018-03-06T01:02:20.679Z,12.60
2018-03-06T01:04:49.708Z,6.13
2018-03-06T01:07:17.974Z,7.37
2018-03-06T01:09:48.026Z,9.53
2018-03-06T01:12:16.318Z,9.73
2018-03-06T01:14:45.366Z,12.03
2018-03-06T01:17:14.025Z,13.20
2018-03-06T01:19:43.062Z,3.00
2018-03-06T01:22:12.859Z,9.20
2018-03-06T01:24:41.492Z,4.77
2018-03-06T01:27:10.549Z,12.70
2018-03-06T01:29:38.850Z,9.00
2018-03-06T01:32:07.439Z,15.70
2018-03-06T01:34:39.882Z,9.70
2018-03-06T01:37:08.420Z,8.13
2018-03-06T01:39:37.472Z,12.33
2018-03-06T01:42:05.776Z,14.30
2018-03-06T01:44:34.872Z,14.80
2018-03-06T01:47:04.942Z,15.80
2018-03-06T01:49:33.257Z,15.00
2018-03-06T01:52:01.567Z,17.83
2018-03-06T01:54:29.854Z,9.77
2018-03-06T01:56:58.131Z,8.20
2018-03-06T01:59:28.802Z,9.07
2018-03-06T02:01:57.066Z,10.30
2018-03-06T02:04:25.351Z,14.00
2018-03-06T02:06:53.874Z,11.97
2018-03-06T02:09:22.925Z,14.07
2018-03-06T02:11:51.195Z,10.03
2018-03-06T02:14:19.807Z,7.07
2018-03-06T02:16:48.107Z,5.07
2018-03-06T02:19:17.881Z,14.63
2018-03-06T02:21:46.287Z,14.60
2018-03-06T02:24:15.415Z,9.40
2018-03-06T02:26:43.708Z,8.20
2018-03-06T02:29:12.040Z,8.37
2018-03-06T02:31:40.325Z,7.57
2018-03-06T02:34:08.627Z,8.70
2018-03-06T02:36:38.725Z,8.50
2018-03-06T02:39:07.797Z,13.00
2018-03-06T02:41:36.101Z,5.80
2018-03-06T02:44:05.286Z,13.03
2018-03-06T02:46:34.354Z,13.50
2018-03-06T02:49:06.070Z,14.23
2018-03-06T02:51:34.349Z,10.03
2018-03-06T02:54:02.632Z,9.13
2018-03-06T02:56:31.044Z,14.63
2018-03-06T02:58:59.339Z,14.80
2018-03-06T03:01:30.747Z,10.40
2018-03-06T03:03:59.066Z,4.67
2018-03-06T03:06:28.859Z,10.60
2018-03-06T03:08:57.181Z,10.60
2018-03-06T03:11:26.357Z,13.50
2018-03-06T03:13:56.534Z,13.33
2018-03-06T03:16:24.812Z,3.97
2018-03-06T03:18:53.260Z,14.97
2018-03-06T03:21:21.554Z,14.33
2018-03-06T03:23:49.861Z,10.00
2018-03-06T03:26:19.782Z,2.23
2018-03-06T03:28:48.062Z,4.60
2018-03-06T03:31:16.338Z,9.90
2018-03-06T03:33:44.662Z,12.33
2018-03-06T03:36:12.936Z,8.30
2018-03-06T03:38:43.197Z,13.20
2018-03-06T03:41:11.508Z,13.73
2018-03-06T03:43:40.539Z,1.53
2018-03-06T03:46:08.810Z,3.87
2018-03-06T03:48:37.884Z,5.10
2018-03-06T03:51:09.507Z,11.30
2018-03-06T03:53:37.805Z,5.70
2018-03-06T03:56:06.889Z,2.73
2018-03-06T03:58:36.673Z,6.87
2018-03-06T04:01:04.940Z,6.17
2018-03-06T04:03:34.105Z,11.50
2018-03-06T04:06:02.355Z,2.87
2018-03-06T04:08:31.403Z,12.53
2018-03-06T04:10:59.762Z,3.57
2018-03-06T04:13:28.035Z,4.87
2018-03-06T04:15:57.797Z,12.33
2018-03-06T04:18:26.489Z,13.30
2018-03-06T04:20:56.269Z,7.97
2018-03-06T04:23:24.542Z,2.73
2018-03-06T04:25:53.377Z,14.60
2018-03-06T04:28:24.925Z,16.97
2018-03-06T04:30:53.259Z,5.30
2018-03-06T04:33:21.573Z,21.87
2018-03-06T04:35:49.870Z,17.03
2018-03-06T04:38:18.925Z,24.50
2018-03-06T04:40:47.433Z,19.93
2018-03-06T04:43:15.737Z,19.80
2018-03-06T04:45:44.791Z,19.73
2018-03-06T04:48:13.105Z,21.30
2018-03-06T04:50:42.162Z,13.40
2018-03-06T04:53:13.818Z,20.10
2018-03-06T04:55:42.138Z,12.03
2018-03-06T04:58:10.421Z,13.20
2018-03-06T05:00:38.700Z,19.00
2018-03-06T05:03:07.546Z,17.40
2018-03-06T05:05:35.904Z,9.70
2018-03-06T05:08:04.172Z,8.07
2018-03-06T05:10:32.483Z,7.50
2018-03-06T05:13:00.773Z,10.60
2018-03-06T05:15:29.822Z,9.30
2018-03-06T05:17:59.692Z,5.67
2018-03-06T05:20:28.726Z,3.57
2018-03-06T05:22:57.377Z,4.40
2018-03-06T05:25:26.449Z,8.63
2018-03-06T05:27:54.731Z,6.07
2018-03-06T05:30:25.304Z,14.70
2018-03-06T05:32:53.934Z,7.83
2018-03-06T05:35:22.201Z,9.20
2018-03-06T05:37:51.387Z,6.57
2018-03-06T05:40:20.086Z,11.07
2018-03-06T05:42:50.734Z,7.40
2018-03-06T05:45:19.775Z,9.57
2018-03-06T05:47:48.196Z,17.60
2018-03-06T05:50:17.260Z,11.80
2018-03-06T05:52:45.561Z,8.47
2018-03-06T05:55:14.563Z,13.50
2018-03-06T05:57:43.607Z,14.90
2018-03-06T06:00:11.908Z,17.90
2018-03-06T06:02:40.223Z,14.23
2018-03-06T06:05:09.310Z,22.10
2018-03-06T06:07:39.247Z,15.10
2018-03-06T06:10:07.697Z,17.33
2018-03-06T06:12:35.997Z,17.73
2018-03-06T06:15:05.048Z,15.50
2018-03-06T06:17:33.438Z,15.50
2018-03-06T06:20:01.791Z,15.13
2018-03-06T06:22:30.059Z,11.47
2018-03-06T06:24:58.590Z,6.10
2018-03-06T06:27:26.849Z,5.70
2018-03-06T06:29:55.125Z,7.70
2018-03-06T06:32:25.151Z,16.87
2018-03-06T06:34:53.436Z,18.20
2018-03-06T06:37:21.700Z,8.33
2018-03-06T06:39:50.010Z,8.63
2018-03-06T06:42:19.046Z,7.33
2018-03-06T06:44:47.415Z,6.57
2018-03-06T06:47:15.760Z,14.23
2018-03-06T06:49:44.796Z,12.93
2018-03-06T06:52:13.067Z,17.60
2018-03-06T06:54:41.449Z,5.10
2018-03-06T06:57:12.730Z,11.20
2018-03-06T06:59:41.005Z,8.13
2018-03-06T07:02:09.323Z,14.40
2018-03-06T07:04:37.603Z,12.30
2018-03-06T07:07:05.912Z,14.53
2018-03-06T07:09:35.887Z,13.60
2018-03-06T07:12:04.169Z,14.57
2018-03-06T07:14:32.494Z,8.03
2018-03-06T07:17:00.868Z,16.30
2018-03-06T07:19:32.490Z,18.03
2018-03-06T07:22:00.780Z,15.70
2018-03-06T07:24:29.269Z,13.97
2018-03-06T07:26:57.584Z,17.00
2018-03-06T07:29:25.870Z,7.30
2018-03-06T07:31:54.534Z,11.90
2018-03-06T07:34:23.586Z,13.50
2018-03-06T07:36:51.839Z,14.10
2018-03-06T07:39:21.124Z,14.60
2018-03-06T07:41:50.168Z,8.80
2018-03-06T07:44:18.538Z,7.67
2018-03-06T07:46:49.712Z,11.50
2018-03-06T07:49:17.967Z,10.47
2018-03-06T07:51:46.261Z,12.93
2018-03-06T07:54:14.705Z,11.90
2018-03-06T07:56:43.008Z,13.60
2018-03-06T07:59:12.345Z,8.00
2018-03-06T08:01:41.166Z,11.27
2018-03-06T08:04:10.203Z,13.37
2018-03-06T08:06:38.470Z,14.07
2018-03-06T08:09:06.993Z,15.73
2018-03-06T08:11:38.010Z,13.97
2018-03-06T08:14:06.357Z,16.70
2018-03-06T08:16:34.791Z,16.50
2018-03-06T08:19:03.056Z,17.47
2018-03-06T08:21:31.335Z,18.10
2018-03-06T08:24:03.126Z,14.80
2018-03-06T08:26:32.166Z,17.53
2018-03-06T08:29:00.434Z,17.07
2018-03-06T08:31:29.843Z,15.03
2018-03-06T08:33:58.119Z,16.77
2018-03-06T08:36:27.455Z,18.43
2018-03-06T08:38:56.755Z,16.93
2018-03-06T08:41:25.042Z,19.33
2018-03-06T08:43:54.206Z,19.60
2018-03-06T08:46:24.007Z,16.57
2018-03-06T08:48:53.081Z,17.37
2018-03-06T08:51:21.338Z,17.13
2018-03-06T08:53:50.820Z,17.97
2018-03-06T08:56:19.106Z,17.03
2018-03-06T08:58:48.152Z,17.23
2018-03-06T09:01:17.757Z,16.10
2018-03-06T09:03:46.164Z,16.27
2018-03-06T09:06:14.572Z,15.70
2018-03-06T09:08:43.983Z,13.90
2018-03-06T09:11:12.255Z,13.67
2018-03-06T09:13:42.740Z,14.40
2018-03-06T09:16:11.248Z,14.37
2018-03-06T09:18:39.514Z,15.20
2018-03-06T09:21:07.810Z,17.30
2018-03-06T09:23:37.073Z,15.77
2018-03-06T09:26:06.150Z,16.30
2018-03-06T09:28:34.519Z,15.33
2018-03-06T09:31:02.822Z,14.73
2018-03-06T09:33:31.111Z,16.37
2018-03-06T09:35:59.381Z,13.10
2018-03-06T09:38:28.201Z,14.03
2018-03-06T09:40:57.245Z,14.43
2018-03-06T09:43:25.503Z,16.40
2018-03-06T09:45:53.909Z,17.13
2018-03-06T09:48:22.165Z,17.60
2018-03-06T09:50:52.146Z,19.10
2018-03-06T09:53:20.673Z,18.10
2018-03-06T09:55:48.954Z,19.50
2018-03-06T09:58:17.328Z,19.97
2018-03-06T10:00:45.726Z,18.40
2018-03-06T10:03:16.479Z,16.87
2018-03-06T10:05:44.737Z,19.33
2018-03-06T10:08:13.208Z,18.13
2018-03-06T10:10:41.477Z,18.00
2018-03-06T10:13:09.821Z,18.17
2018-03-06T10:15:40.434Z,22.97
2018-03-06T10:18:09.487Z,24.50
2018-03-06T10:20:37.790Z,24.60
2018-03-06T10:23:06.149Z,28.60
2018-03-06T10:25:34.419Z,25.43
2018-03-06T10:28:03.888Z,24.10
2018-03-06T10:30:33.009Z,24.07
2018-03-06T10:33:01.282Z,23.93
2018-03-06T10:35:29.572Z,25.17
2018-03-06T10:37:57.937Z,22.40
2018-03-06T10:40:27.746Z,24.13
2018-03-06T10:42:56.026Z,20.67
2018-03-06T10:45:24.341Z,23.00
2018-03-06T10:47:52.679Z,24.30
2018-03-06T10:50:20.973Z,21.37
2018-03-06T10:52:50.702Z,23.93
2018-03-06T10:55:19.789Z,23.33
2018-03-06T10:57:48.101Z,22.93
2018-03-06T11:00:16.652Z,21.07
2018-03-06T11:02:44.953Z,19.10
2018-03-06T11:05:15.777Z,25.47
2018-03-06T11:07:44.195Z,24.17
2018-03-06T11:10:13.310Z,24.93
2018-03-06T11:12:41.587Z,25.67
2018-03-06T11:15:10.285Z,20.90
2018-03-06T11:17:40.609Z,21.40
2018-03-06T11:20:08.913Z,24.60
2018-03-06T11:22:38.274Z,20.37
2018-03-06T11:25:06.556Z,25.30
2018-03-06T11:27:34.933Z,23.83
2018-03-06T11:30:04.867Z,18.50
2018-03-06T11:32:33.938Z,25.50
2018-03-06T11:35:02.227Z,24.67
2018-03-06T11:37:30.536Z,23.17
2018-03-06T11:39:59.576Z,24.37
2018-03-06T11:42:30.749Z,21.57
2018-03-06T11:44:59.313Z,22.53
2018-03-06T11:47:27.692Z,25.90
2018-03-06T11:49:55.966Z,23.13
2018-03-06T11:52:24.554Z,26.30
2018-03-06T11:54:52.901Z,25.67
2018-03-06T11:57:21.186Z,25.53
2018-03-06T11:59:50.150Z,24.10
2018-03-06T12:02:19.191Z,27.53
2018-03-06T12:04:47.502Z,26.53
2018-03-06T12:07:19.564Z,27.07
2018-03-06T12:09:48.649Z,24.43
2018-03-06T12:12:16.988Z,25.87
2018-03-06T12:14:46.310Z,23.70
2018-03-06T12:17:14.579Z,29.13
2018-03-06T12:19:43.705Z,28.30
2018-03-06T12:22:12.060Z,26.37
2018-03-06T12:24:40.378Z,27.43
2018-03-06T12:27:09.486Z,27.53
2018-03-06T12:29:38.114Z,25.07
2018-03-06T12:32:11.254Z,27.60
2018-03-06T12:34:40.539Z,28.80
2018-03-06T12:37:09.694Z,28.10
2018-03-06T12:39:37.979Z,26.27
2018-03-06T12:42:06.311Z,29.00
2018-03-06T12:44:35.360Z,26.10
2018-03-06T12:47:03.734Z,29.43
2018-03-06T12:49:33.171Z,27.50
2018-03-06T12:52:02.241Z,28.67
2018-03-06T12:54:30.533Z,29.30
2018-03-06T12:56:59.187Z,28.80
2018-03-06T12:59:27.464Z,30.43
2018-03-06T13:01:55.743Z,29.60
2018-03-06T13:04:24.059Z,28.43
2018-03-06T13:06:53.104Z,33.17
2018-03-06T13:09:24.836Z,26.67
2018-03-06T13:11:53.248Z,29.03
2018-03-06T13:14:21.627Z,25.57
2018-03-06T13:16:49.901Z,28.90
2018-03-06T13:19:18.229Z,28.80
2018-03-06T13:21:47.344Z,29.77
2018-03-06T13:24:15.626Z,29.53
2018-03-06T13:29:20.686Z,27.70
2018-03-06T13:31:49.944Z,27.50
2018-03-06T13:34:18.996Z,25.67
2018-03-06T13:36:47.282Z,21.73
2018-03-06T13:39:15.867Z,26.87
2018-03-06T13:41:44.238Z,27.13
2018-03-06T13:44:14.677Z,28.10
2018-03-06T13:46:44.020Z,28.60
2018-03-06T13:49:13.061Z,28.03
2018-03-06T13:51:42.257Z,25.77
2018-03-06T13:54:10.700Z,26.53
2018-03-06T13:56:41.272Z,28.07
2018-03-06T13:59:09.565Z,25.73
2018-03-06T14:01:37.872Z,29.97
2018-03-06T14:04:06.180Z,24.33
2018-03-06T14:06:34.464Z,27.77
2018-03-06T14:09:05.623Z,26.37
2018-03-06T14:11:34.175Z,30.10
2018-03-06T14:14:02.434Z,27.07
2018-03-06T14:16:30.745Z,27.17
2018-03-06T14:18:59.009Z,27.70
2018-03-06T14:21:28.220Z,26.17
2018-03-06T14:23:56.721Z,27.20
2018-03-06T14:26:24.986Z,23.80
2018-03-06T14:28:53.365Z,28.70
2018-03-06T14:31:21.667Z,27.67
2018-03-06T14:33:51.986Z,27.57
2018-03-06T14:36:20.343Z,24.33
2018-03-06T14:38:49.131Z,28.33
2018-03-06T14:41:19.004Z,27.27
2018-03-06T14:43:47.277Z,26.00
2018-03-06T14:46:16.723Z,28.50
2018-03-06T14:48:45.040Z,24.50
2018-03-06T14:51:14.102Z,24.67
2018-03-06T14:53:43.125Z,25.33
2018-03-06T14:56:12.169Z,27.03
2018-03-06T14:58:40.767Z,25.83
2018-03-06T15:01:09.251Z,26.23
2018-03-06T15:03:37.550Z,24.80
2018-03-06T15:06:05.816Z,21.77
2018-03-06T15:08:34.146Z,26.30
2018-03-06T15:11:03.170Z,23.77
2018-03-06T15:13:32.558Z,27.10
2018-03-06T15:16:01.177Z,21.27
2018-03-06T15:18:30.238Z,24.30
2018-03-06T15:20:58.555Z,20.83
2018-03-06T15:23:29.486Z,25.47
2018-03-06T15:25:57.847Z,20.13
2018-03-06T15:28:26.132Z,24.00
2018-03-06T15:30:54.422Z,22.60
2018-03-06T15:33:22.691Z,21.70
2018-03-06T15:35:51.786Z,18.80
2018-03-06T15:38:20.106Z,24.80
2018-03-06T15:40:48.427Z,24.97
2018-03-06T15:43:16.773Z,25.77
2018-03-06T15:45:45.150Z,28.50
2018-03-06T15:48:15.264Z,23.07
2018-03-06T15:50:44.405Z,28.70
2018-03-06T15:53:12.987Z,29.90
2018-03-06T15:55:41.318Z,27.80
2018-03-06T15:58:09.775Z,28.53
2018-03-06T16:00:40.429Z,28.77
2018-03-06T16:03:08.738Z,30.23
2018-03-06T16:05:37.051Z,26.20
2018-03-06T16:08:05.676Z,31.40
2018-03-06T16:10:33.997Z,31.40
2018-03-06T16:13:03.888Z,31.50
2018-03-06T16:15:32.357Z,27.93
2018-03-06T16:18:01.749Z,27.57
2018-03-06T16:20:30.137Z,27.27
2018-03-06T16:22:58.581Z,29.70
2018-03-06T16:25:29.962Z,28.23
2018-03-06T16:27:58.373Z,26.73
2018-03-06T16:30:26.835Z,29.40
2018-03-06T16:32:55.201Z,30.57
2018-03-06T16:35:23.521Z,32.90
2018-03-06T16:37:53.373Z,29.37
2018-03-06T16:40:22.455Z,44.07
2018-03-06T16:42:51.543Z,29.70
2018-03-06T16:45:20.869Z,31.40
2018-03-06T16:47:49.994Z,31.27
2018-03-06T16:50:22.997Z,31.57
2018-03-06T16:52:51.311Z,30.10
2018-03-06T16:55:19.608Z,32.50
2018-03-06T16:57:48.087Z,30.77
2018-03-06T17:00:16.390Z,32.80
2018-03-06T17:02:45.234Z,31.17
2018-03-06T17:05:14.333Z,28.40
2018-03-06T17:07:43.405Z,28.90
2018-03-06T17:10:11.726Z,27.70
2018-03-06T17:12:40.363Z,25.53
2018-03-06T17:15:10.964Z,27.00
2018-03-06T17:17:39.620Z,29.20
2018-03-06T17:20:08.563Z,28.10
2018-03-06T17:22:36.868Z,30.23
2018-03-06T17:25:05.197Z,27.60
2018-03-06T17:27:36.124Z,26.00
2018-03-06T17:30:04.531Z,29.87
2018-03-06T17:32:32.908Z,30.43
2018-03-06T17:35:01.496Z,29.20
2018-03-06T17:37:29.790Z,30.00
2018-03-06T17:39:59.629Z,30.40
2018-03-06T17:42:28.753Z,28.20
2018-03-06T17:44:57.157Z,29.73
2018-03-06T17:47:25.612Z,29.90
2018-03-06T17:49:53.981Z,29.23
2018-03-06T17:52:24.649Z,28.80
2018-03-06T17:54:53.788Z,29.33
2018-03-06T17:57:23.560Z,33.57
2018-03-06T17:59:53.120Z,30.90
2018-03-06T18:02:22.395Z,30.07
2018-03-06T18:04:51.772Z,32.80
2018-03-06T18:07:20.101Z,34.07
2018-03-06T18:09:48.750Z,35.33
2018-03-06T18:12:17.155Z,37.30
2018-03-06T18:14:45.516Z,35.50
2018-03-06T18:17:15.295Z,36.80
2018-03-06T18:19:44.282Z,33.47
2018-03-06T18:22:12.600Z,33.50
2018-03-06T18:24:41.740Z,31.50
2018-03-06T18:27:10.402Z,31.50
2018-03-06T18:29:38.757Z,32.17
2018-03-06T18:32:08.028Z,33.37
2018-03-06T18:34:37.061Z,30.70
2018-03-06T18:37:06.146Z,33.07
2018-03-06T18:39:35.966Z,31.20
2018-03-06T18:42:18.086Z,30.60
2018-03-06T18:44:46.423Z,34.67
2018-03-06T18:47:14.741Z,36.03
2018-03-06T18:49:56.332Z,34.10
2018-03-06T18:52:24.873Z,37.77
2018-03-06T18:54:53.256Z,33.10
2018-03-06T18:57:21.805Z,33.80
2018-03-06T19:03:23.819Z,28.73
2018-03-06T19:06:03.906Z,32.60
2018-03-06T19:08:32.572Z,33.23
2018-03-06T19:11:01.673Z,33.10
2018-03-06T19:13:30.918Z,32.57
2018-03-06T19:15:59.284Z,28.43
2018-03-06T19:18:27.712Z,25.67
2018-03-06T19:20:56.908Z,30.83
2018-03-06T19:23:26.219Z,29.03
2018-03-06T19:25:54.823Z,25.97
2018-03-06T19:28:23.179Z,33.13
2018-03-06T19:30:51.780Z,33.13
2018-03-06T19:33:20.856Z,33.30
2018-03-06T19:35:49.157Z,32.90
2018-03-06T19:38:18.459Z,30.10
2018-03-06T19:40:47.542Z,32.47
2018-03-06T19:43:16.651Z,30.27
2018-03-06T19:45:45.147Z,32.40
2018-03-06T19:48:13.427Z,29.10
2018-03-06T19:50:43.331Z,34.90
2018-03-06T19:53:11.791Z,33.23
2018-03-06T19:55:40.871Z,32.23
2018-03-06T19:58:09.719Z,33.30
2018-03-06T20:00:38.314Z,33.93
2018-03-06T20:03:07.068Z,35.70
2018-03-06T20:05:35.469Z,36.57
2018-03-06T20:08:04.082Z,32.07
2018-03-06T20:10:32.366Z,33.57
2018-03-06T20:13:00.629Z,33.20
2018-03-06T20:15:29.693Z,31.07
2018-03-06T20:17:58.003Z,31.77
2018-03-06T20:20:26.280Z,31.50
2018-03-06T20:22:56.788Z,34.03
2018-03-06T20:25:30.790Z,34.40
2018-03-06T20:27:59.805Z,32.53
2018-03-06T20:30:33.916Z,31.20
2018-03-06T20:33:08.259Z,34.20
2018-03-06T20:35:37.253Z,32.17
2018-03-06T20:38:15.359Z,35.17
2018-03-06T20:40:43.676Z,35.53
2018-03-06T20:43:11.966Z,36.67
2018-03-06T20:45:46.023Z,36.50
2018-03-06T20:48:14.372Z,35.43
2018-03-06T20:50:42.666Z,34.80
2018-03-06T20:53:16.863Z,35.47
2018-03-06T20:55:45.163Z,34.40
2018-03-06T20:58:13.469Z,37.37
2018-03-06T21:00:45.207Z,31.60
2018-03-06T21:03:13.485Z,34.63
2018-03-06T21:05:41.742Z,34.10
2018-03-06T21:08:10.104Z,32.93
2018-03-06T21:10:38.406Z,34.67
2018-03-06T21:13:06.759Z,35.60
2018-03-06T21:15:35.278Z,37.53
2018-03-06T21:18:04.352Z,35.83
2018-03-06T21:20:32.628Z,36.57
2018-03-06T21:23:04.049Z,37.50
2018-03-06T21:25:33.118Z,33.87
2018-03-06T21:28:01.396Z,33.47
2018-03-06T21:30:29.684Z,35.63
2018-03-06T21:32:57.953Z,33.70
2018-03-06T21:35:26.238Z,33.70
2018-03-06T21:37:55.822Z,29.20
2018-03-06T21:40:24.092Z,34.20
2018-03-06T21:42:53.159Z,35.80
2018-03-06T21:45:22.218Z,34.87
2018-03-06T21:47:50.480Z,35.90
2018-03-06T21:50:20.238Z,40.37
2018-03-06T21:52:48.721Z,34.23
2018-03-06T21:55:18.576Z,31.77
2018-03-06T21:57:46.862Z,33.10
2018-03-06T22:00:15.166Z,35.40
2018-03-06T22:02:46.517Z,31.03
2018-03-06T22:05:14.784Z,31.77
2018-03-06T22:07:43.494Z,35.40
2018-03-06T22:10:13.265Z,35.73
2018-03-06T22:12:41.539Z,38.83
2018-03-06T22:15:13.434Z,36.73
2018-03-06T22:17:41.705Z,37.00
2018-03-06T22:20:09.957Z,35.67
2018-03-06T22:22:38.467Z,36.00
2018-03-06T22:25:06.817Z,32.90
2018-03-06T22:27:35.082Z,37.23
2018-03-06T22:30:03.939Z,35.63
2018-03-06T22:32:32.986Z,31.70
2018-03-06T22:35:01.255Z,30.33
2018-03-06T22:37:29.794Z,33.90
2018-03-06T22:39:59.333Z,31.63
2018-03-06T22:42:27.739Z,33.33
2018-03-06T22:44:56.587Z,33.90
2018-03-06T22:47:25.629Z,41.10
2018-03-06T22:49:53.938Z,37.47
2018-03-06T22:52:25.637Z,34.83
2018-03-06T22:54:53.911Z,37.80
2018-03-06T22:57:22.174Z,36.20
2018-03-06T22:59:50.512Z,35.40
2018-03-06T23:02:18.808Z,40.10
2018-03-06T23:04:48.172Z,37.63
2018-03-06T23:07:16.662Z,33.70
2018-03-06T23:09:46.422Z,30.23
2018-03-06T23:12:14.697Z,34.63
2018-03-06T23:14:43.155Z,34.97
2018-03-06T23:17:14.753Z,30.97
2018-03-06T23:19:43.110Z,35.37
2018-03-06T23:22:11.443Z,41.93
2018-03-06T23:24:40.532Z,39.87
2018-03-06T23:27:09.366Z,37.03
2018-03-06T23:29:38.490Z,33.60
2018-03-06T23:32:06.888Z,35.00
2018-03-06T23:34:35.147Z,36.60
2018-03-06T23:37:03.861Z,34.90
2018-03-06T23:39:32.153Z,39.23
2018-03-06T23:42:01.957Z,29.33
2018-03-06T23:44:31.792Z,37.50
2018-03-06T23:47:00.823Z,31.70
2018-03-06T23:49:29.090Z,39.00
2018-03-06T23:51:57.406Z,39.27
2018-03-06T23:54:28.968Z,34.10
2018-03-06T23:56:57.246Z,34.60
2018-03-06T23:59:25.723Z,34.10
